createdAt,value
2023-03-27T00:01:51.844Z,1.38
2023-03-27T00:04:21.321Z,3.28
2023-03-27T00:06:49.812Z,4.38
2023-03-27T00:09:19.039Z,2.90
2023-03-27T00:11:48.989Z,1.75
2023-03-27T00:14:21.923Z,1.73
2023-03-27T00:16:51.144Z,1.10
2023-03-27T00:19:19.941Z,2.90
2023-03-27T00:21:48.734Z,1.80
2023-03-27T00:24:17.341Z,0.90
2023-03-27T00:26:45.746Z,1.42
2023-03-27T00:29:15.395Z,1.73
2023-03-27T00:31:43.692Z,1.60
2023-03-27T00:34:12.260Z,0.95
2023-03-27T00:36:40.856Z,3.88
2023-03-27T00:39:10.255Z,3.35
2023-03-27T00:41:38.648Z,2.20
2023-03-27T00:44:22.315Z,5.25
2023-03-27T00:46:51.116Z,2.10
2023-03-27T00:49:19.503Z,3.55
2023-03-27T00:51:48.362Z,1.02
2023-03-27T00:54:17.640Z,3.88
2023-03-27T00:56:46.077Z,1.55
2023-03-27T00:59:15.509Z,2.28
2023-03-27T01:01:45.297Z,0.68
2023-03-27T01:04:13.765Z,0.98
2023-03-27T01:06:44.914Z,0.98
2023-03-27T01:09:20.238Z,2.25
2023-03-27T01:11:56.355Z,1.03
2023-03-27T01:14:28.244Z,0.52
2023-03-27T01:17:06.480Z,1.55
2023-03-27T01:20:09.797Z,1.52
2023-03-27T01:23:07.010Z,0.57
2023-03-27T01:26:07.896Z,1.48
2023-03-27T01:28:39.974Z,1.35
2023-03-27T01:31:19.675Z,1.10
2023-03-27T01:34:21.756Z,1.15
2023-03-27T01:37:14.652Z,1.60
2023-03-27T01:39:50.517Z,1.73
2023-03-27T01:42:22.039Z,1.60
2023-03-27T01:44:52.135Z,1.42
2023-03-27T01:47:31.602Z,1.67
2023-03-27T01:50:04.316Z,2.28
2023-03-27T01:52:34.078Z,1.88
2023-03-27T01:55:09.780Z,0.93
2023-03-27T01:57:50.025Z,2.83
2023-03-27T02:00:22.247Z,0.95
2023-03-27T02:02:53.156Z,0.52
2023-03-27T02:05:24.121Z,2.20
2023-03-27T02:07:53.846Z,2.22
2023-03-27T02:10:25.850Z,1.30
2023-03-27T02:12:56.888Z,2.25
2023-03-27T02:15:30.587Z,0.95
2023-03-27T02:18:06.699Z,1.08
2023-03-27T02:20:35.139Z,3.30
2023-03-27T02:23:03.520Z,1.42
2023-03-27T02:25:34.235Z,2.13
2023-03-27T02:28:23.721Z,0.70
2023-03-27T02:31:06.612Z,2.70
2023-03-27T02:33:53.524Z,1.63
2023-03-27T02:36:28.314Z,0.85
2023-03-27T02:38:59.702Z,1.63
2023-03-27T02:41:31.217Z,2.80
2023-03-27T02:44:03.129Z,0.85
2023-03-27T02:46:32.942Z,3.80
2023-03-27T02:49:04.595Z,1.38
2023-03-27T02:51:37.274Z,1.75
2023-03-27T02:54:07.500Z,1.52
2023-03-27T02:56:39.446Z,1.23
2023-03-27T02:59:09.607Z,3.03
2023-03-27T03:01:37.990Z,0.93
2023-03-27T03:04:07.382Z,1.73
2023-03-27T03:06:35.949Z,2.47
2023-03-27T03:09:06.188Z,0.82
2023-03-27T03:11:35.445Z,2.10
2023-03-27T03:14:05.252Z,1.52
2023-03-27T03:16:33.901Z,2.28
2023-03-27T03:19:03.781Z,1.33
2023-03-27T03:21:32.528Z,1.33
2023-03-27T03:24:01.056Z,1.10
2023-03-27T03:26:29.992Z,4.75
2023-03-27T03:29:00.257Z,0.70
2023-03-27T03:31:44.201Z,0.45
2023-03-27T03:34:13.061Z,0.88
2023-03-27T03:36:42.897Z,1.40
2023-03-27T03:39:12.447Z,0.40
2023-03-27T03:41:40.894Z,0.93
2023-03-27T03:44:09.948Z,0.70
2023-03-27T03:46:39.801Z,1.02
2023-03-27T03:49:08.149Z,2.85
2023-03-27T03:51:36.731Z,3.95
2023-03-27T03:54:09.138Z,3.95
2023-03-27T03:56:44.670Z,1.38
2023-03-27T03:59:13.009Z,2.33
2023-03-27T04:01:42.688Z,0.60
2023-03-27T04:04:11.323Z,1.00
2023-03-27T04:06:39.748Z,1.52
2023-03-27T04:09:08.059Z,0.30
2023-03-27T04:11:36.390Z,0.90
2023-03-27T04:14:04.848Z,0.70
2023-03-27T04:16:33.946Z,0.85
2023-03-27T04:19:05.606Z,1.33
2023-03-27T04:21:33.979Z,1.45
2023-03-27T04:24:02.917Z,1.48
2023-03-27T04:26:31.410Z,0.63
2023-03-27T04:28:59.790Z,0.95
2023-03-27T04:31:30.320Z,1.00
2023-03-27T04:33:59.909Z,1.23
2023-03-27T04:36:31.132Z,2.50
2023-03-27T04:38:59.688Z,0.88
2023-03-27T04:41:29.807Z,2.67
2023-03-27T04:43:58.140Z,1.50
2023-03-27T04:46:26.560Z,0.32
2023-03-27T04:48:56.397Z,1.27
2023-03-27T04:51:26.707Z,3.20
2023-03-27T04:53:58.224Z,2.10
2023-03-27T04:56:26.584Z,1.27
2023-03-27T04:58:54.900Z,1.13
2023-03-27T05:01:25.361Z,0.88
2023-03-27T05:03:54.637Z,2.00
2023-03-27T05:06:23.221Z,2.85
2023-03-27T05:08:51.542Z,2.25
2023-03-27T05:11:21.272Z,1.52
2023-03-27T05:13:49.652Z,1.23
2023-03-27T05:16:18.459Z,1.30
2023-03-27T05:18:46.865Z,0.55
2023-03-27T05:21:17.384Z,1.58
2023-03-27T05:23:45.830Z,2.33
2023-03-27T05:26:14.176Z,3.17
2023-03-27T05:28:44.664Z,1.33
2023-03-27T05:31:13.011Z,3.40
2023-03-27T05:33:41.400Z,2.40
2023-03-27T05:36:10.711Z,4.57
2023-03-27T05:38:39.442Z,1.90
2023-03-27T05:41:09.721Z,3.78
2023-03-27T05:43:38.057Z,4.75
2023-03-27T05:46:08.309Z,1.33
2023-03-27T05:48:36.643Z,3.40
2023-03-27T05:51:05.542Z,1.58
2023-03-27T05:53:35.292Z,3.90
2023-03-27T05:56:03.791Z,6.13
2023-03-27T05:58:34.906Z,66.28
2023-03-27T06:01:03.481Z,129.30
2023-03-27T06:03:35.702Z,84.93
2023-03-27T06:06:10.824Z,61.90
2023-03-27T06:08:39.249Z,42.63
2023-03-27T06:11:11.014Z,40.55
2023-03-27T06:13:40.707Z,34.55
2023-03-27T06:16:09.556Z,47.35
2023-03-27T06:18:39.294Z,38.70
2023-03-27T06:21:10.361Z,32.45
2023-03-27T06:23:38.668Z,37.85
2023-03-27T06:26:07.386Z,37.58
2023-03-27T06:28:35.742Z,30.77
2023-03-27T06:31:04.239Z,45.63
2023-03-27T06:33:32.613Z,37.72
2023-03-27T06:36:02.382Z,33.25
2023-03-27T06:38:32.449Z,35.88
2023-03-27T06:41:02.192Z,26.63
2023-03-27T06:43:30.712Z,30.83
2023-03-27T06:46:03.099Z,24.20
2023-03-27T06:48:32.654Z,26.58
2023-03-27T06:51:02.776Z,30.38
2023-03-27T06:53:34.252Z,20.48
2023-03-27T06:56:05.756Z,22.63
2023-03-27T06:58:34.129Z,18.83
2023-03-27T07:01:02.643Z,27.15
2023-03-27T07:03:33.025Z,20.30
2023-03-27T07:06:02.997Z,19.65
2023-03-27T07:08:31.392Z,20.00
2023-03-27T07:13:35.270Z,28.40
2023-03-27T07:16:03.843Z,10.07
2023-03-27T07:18:32.341Z,13.32
2023-03-27T07:21:02.031Z,18.30
2023-03-27T07:23:30.524Z,12.45
2023-03-27T07:25:59.408Z,10.25
2023-03-27T07:28:28.016Z,16.52
2023-03-27T07:30:56.616Z,13.95
2023-03-27T07:33:25.264Z,15.95
2023-03-27T07:35:53.748Z,9.43
2023-03-27T07:38:23.498Z,15.13
2023-03-27T07:40:54.401Z,15.30
2023-03-27T07:43:23.031Z,10.95
2023-03-27T07:45:51.383Z,12.30
2023-03-27T07:48:20.265Z,11.73
2023-03-27T07:50:51.859Z,11.50
2023-03-27T07:53:33.828Z,13.00
2023-03-27T07:56:03.559Z,10.23
2023-03-27T07:58:32.107Z,13.55
2023-03-27T08:01:02.531Z,13.20
2023-03-27T08:03:31.608Z,6.80
2023-03-27T08:06:00.914Z,11.88
2023-03-27T08:08:30.829Z,13.93
2023-03-27T08:10:59.813Z,10.63
2023-03-27T08:13:33.115Z,11.20
2023-03-27T08:16:11.502Z,8.52
2023-03-27T08:18:39.892Z,5.07
2023-03-27T08:21:09.215Z,7.45
2023-03-27T08:23:39.385Z,10.75
2023-03-27T08:26:07.931Z,5.68
2023-03-27T08:28:37.165Z,5.07
2023-03-27T08:31:11.381Z,3.85
2023-03-27T08:33:40.114Z,7.68
2023-03-27T08:36:10.642Z,5.78
2023-03-27T08:38:41.683Z,6.70
2023-03-27T08:41:27.940Z,2.83
2023-03-27T08:43:57.574Z,8.35
2023-03-27T08:46:28.929Z,3.85
2023-03-27T08:48:59.262Z,2.78
2023-03-27T08:51:30.768Z,5.13
2023-03-27T08:54:03.444Z,4.93
2023-03-27T08:56:31.750Z,5.13
2023-03-27T08:59:00.190Z,5.72
2023-03-27T09:01:31.136Z,4.55
2023-03-27T09:04:05.109Z,2.17
2023-03-27T09:06:38.238Z,3.00
2023-03-27T09:09:12.213Z,3.78
2023-03-27T09:11:49.438Z,7.38
2023-03-27T09:14:25.919Z,3.90
2023-03-27T09:16:54.279Z,4.07
2023-03-27T09:19:26.171Z,3.53
2023-03-27T09:21:55.473Z,3.45
2023-03-27T09:24:30.400Z,5.97
2023-03-27T09:27:07.282Z,4.97
2023-03-27T09:29:37.888Z,9.35
2023-03-27T09:32:07.179Z,6.50
2023-03-27T09:34:38.166Z,3.97
2023-03-27T09:37:11.830Z,5.85
2023-03-27T09:39:43.130Z,3.67
2023-03-27T09:42:17.047Z,3.63
2023-03-27T09:44:46.285Z,9.95
2023-03-27T09:47:15.462Z,6.22
2023-03-27T09:49:48.060Z,3.90
2023-03-27T09:52:34.466Z,8.60
2023-03-27T09:55:04.960Z,3.25
2023-03-27T09:57:34.401Z,3.45
2023-03-27T10:00:09.280Z,5.78
2023-03-27T10:02:38.050Z,4.78
2023-03-27T10:05:16.431Z,3.90
2023-03-27T10:07:45.000Z,3.92
2023-03-27T10:10:15.670Z,3.42
2023-03-27T10:12:44.416Z,7.25
2023-03-27T10:15:29.355Z,6.72
2023-03-27T10:18:00.739Z,4.88
2023-03-27T10:20:29.136Z,7.13
2023-03-27T10:22:58.319Z,2.20
2023-03-27T10:25:31.237Z,4.35
2023-03-27T10:28:08.877Z,3.08
2023-03-27T10:30:38.019Z,2.03
2023-03-27T10:33:07.262Z,3.80
2023-03-27T10:35:39.806Z,7.40
2023-03-27T10:38:12.295Z,2.15
2023-03-27T10:40:42.574Z,2.38
2023-03-27T10:43:12.870Z,1.63
2023-03-27T10:45:44.908Z,2.03
2023-03-27T10:48:13.910Z,2.95
2023-03-27T10:50:44.188Z,4.45
2023-03-27T10:53:16.436Z,3.17
2023-03-27T10:55:52.085Z,3.30
2023-03-27T10:58:24.463Z,1.27
2023-03-27T11:00:56.730Z,3.72
2023-03-27T11:03:28.782Z,1.60
2023-03-27T11:06:00.196Z,1.73
2023-03-27T11:08:31.259Z,1.02
2023-03-27T11:11:02.649Z,3.25
2023-03-27T11:13:32.295Z,3.75
2023-03-27T11:16:05.324Z,2.50
2023-03-27T11:18:35.916Z,2.60
2023-03-27T11:21:05.727Z,1.80
2023-03-27T11:23:35.096Z,2.42
2023-03-27T11:26:06.230Z,2.33
2023-03-27T11:28:39.574Z,2.17
2023-03-27T11:31:13.372Z,3.03
2023-03-27T11:33:43.993Z,1.67
2023-03-27T11:36:33.500Z,2.75
2023-03-27T11:39:07.484Z,1.67
2023-03-27T11:41:37.144Z,1.25
2023-03-27T11:44:06.644Z,1.73
2023-03-27T11:46:47.913Z,2.42
2023-03-27T11:49:27.124Z,1.23
2023-03-27T11:52:02.189Z,2.38
2023-03-27T11:54:41.220Z,5.63
2023-03-27T11:57:13.103Z,1.77
2023-03-27T12:00:08.153Z,2.33
2023-03-27T12:03:10.149Z,2.92
2023-03-27T12:05:44.507Z,1.02
2023-03-27T12:08:15.943Z,1.80
2023-03-27T12:10:44.308Z,1.98
2023-03-27T12:13:58.207Z,3.45
2023-03-27T12:16:45.952Z,3.35
2023-03-27T12:22:17.488Z,3.42
2023-03-27T12:25:00.198Z,3.08
2023-03-27T12:27:34.256Z,1.58
2023-03-27T12:30:16.111Z,3.78
2023-03-27T12:33:00.243Z,2.60
2023-03-27T12:35:29.875Z,2.55
2023-03-27T12:37:59.581Z,3.00
2023-03-27T12:40:30.251Z,2.42
2023-03-27T12:43:11.982Z,1.48
2023-03-27T12:45:51.120Z,2.97
2023-03-27T12:48:21.821Z,2.38
2023-03-27T12:50:57.027Z,3.85
2023-03-27T12:53:47.873Z,1.92
2023-03-27T12:56:32.887Z,0.45
2023-03-27T12:59:01.364Z,1.83
2023-03-27T13:01:52.678Z,3.13
2023-03-27T13:04:30.696Z,2.17
2023-03-27T13:07:00.174Z,1.55
2023-03-27T13:09:55.297Z,0.45
2023-03-27T13:12:34.484Z,3.03
2023-03-27T13:15:15.870Z,1.17
2023-03-27T13:17:57.199Z,1.67
2023-03-27T13:20:32.484Z,1.25
2023-03-27T13:23:08.175Z,2.33
2023-03-27T13:25:49.587Z,2.90
2023-03-27T13:28:31.357Z,3.83
2023-03-27T13:31:00.239Z,1.60
2023-03-27T13:33:40.433Z,2.38
2023-03-27T13:36:17.752Z,3.90
2023-03-27T13:39:04.409Z,0.82
2023-03-27T13:41:59.303Z,3.03
2023-03-27T13:44:35.390Z,4.43
2023-03-27T13:47:12.788Z,3.55
2023-03-27T13:49:55.119Z,1.92
2023-03-27T13:52:42.204Z,1.13
2023-03-27T13:55:34.620Z,1.58
2023-03-27T13:58:24.232Z,1.85
2023-03-27T14:01:14.309Z,1.05
2023-03-27T14:04:03.663Z,1.52
2023-03-27T14:06:56.662Z,1.83
2023-03-27T14:09:28.495Z,1.58
2023-03-27T14:12:02.237Z,1.25
2023-03-27T14:14:40.491Z,2.03
2023-03-27T14:17:22.869Z,2.05
2023-03-27T14:20:11.562Z,1.35
2023-03-27T14:22:44.377Z,2.22
2023-03-27T14:25:13.811Z,3.03
2023-03-27T14:27:42.310Z,2.17
2023-03-27T14:30:16.587Z,1.23
2023-03-27T14:32:45.110Z,2.75
2023-03-27T14:35:35.989Z,2.38
2023-03-27T14:38:07.670Z,0.60
2023-03-27T14:40:39.246Z,2.03
2023-03-27T14:43:07.951Z,3.47
2023-03-27T14:45:36.665Z,1.15
2023-03-27T14:48:07.827Z,2.47
2023-03-27T14:50:38.181Z,1.25
2023-03-27T14:53:10.708Z,1.75
2023-03-27T14:55:39.860Z,1.25
2023-03-27T14:58:11.567Z,0.47
2023-03-27T15:00:40.774Z,1.40
2023-03-27T15:03:13.753Z,1.92
2023-03-27T15:05:57.171Z,1.20
2023-03-27T15:08:29.439Z,2.20
2023-03-27T15:10:57.906Z,1.00
2023-03-27T15:13:26.622Z,1.65
2023-03-27T15:15:56.844Z,0.30
2023-03-27T15:18:31.371Z,1.42
2023-03-27T15:21:01.634Z,0.73
2023-03-27T15:23:33.701Z,0.88
2023-03-27T15:26:02.892Z,2.20
2023-03-27T15:28:32.737Z,1.00
2023-03-27T15:31:01.888Z,3.08
2023-03-27T15:33:34.134Z,3.05
2023-03-27T15:36:03.757Z,0.40
2023-03-27T15:38:34.598Z,0.75
2023-03-27T15:41:04.119Z,1.38
2023-03-27T15:43:32.491Z,1.17
2023-03-27T15:46:13.438Z,0.75
2023-03-27T15:48:44.859Z,1.10
2023-03-27T15:51:13.955Z,1.30
2023-03-27T15:53:44.988Z,0.80
2023-03-27T15:56:20.175Z,1.75
2023-03-27T15:58:49.702Z,0.80
2023-03-27T16:01:20.010Z,1.08
2023-03-27T16:03:50.551Z,1.40
2023-03-27T16:06:27.786Z,1.45
2023-03-27T16:11:36.711Z,1.35
2023-03-27T16:14:05.095Z,2.28
2023-03-27T16:16:34.148Z,2.78
2023-03-27T16:19:03.413Z,4.40
2023-03-27T16:21:36.097Z,3.95
2023-03-27T16:24:06.337Z,2.30
2023-03-27T16:26:34.627Z,5.20
2023-03-27T16:29:04.405Z,5.68
2023-03-27T16:31:32.875Z,4.05
2023-03-27T16:34:01.241Z,3.95
2023-03-27T16:36:30.929Z,5.47
2023-03-27T16:38:59.295Z,4.53
2023-03-27T16:41:29.040Z,4.78
2023-03-27T16:43:57.400Z,3.10
2023-03-27T16:46:27.069Z,2.90
2023-03-27T16:48:56.280Z,2.78
2023-03-27T16:51:26.261Z,4.07
2023-03-27T16:53:54.750Z,4.22
2023-03-27T16:56:23.278Z,5.93
2023-03-27T16:58:52.948Z,3.63
2023-03-27T17:01:23.818Z,2.05
2023-03-27T17:03:54.975Z,4.40
2023-03-27T17:06:23.474Z,3.03
2023-03-27T17:08:55.504Z,2.72
2023-03-27T17:11:24.151Z,2.45
2023-03-27T17:13:54.422Z,4.28
2023-03-27T17:16:22.829Z,4.43
2023-03-27T17:18:51.794Z,5.10
2023-03-27T17:21:20.217Z,4.53
2023-03-27T17:23:48.697Z,3.33
2023-03-27T17:26:22.526Z,2.03
2023-03-27T17:28:50.936Z,3.35
2023-03-27T17:31:20.680Z,2.35
2023-03-27T17:33:49.058Z,5.28
2023-03-27T17:36:23.836Z,1.80
2023-03-27T17:38:58.289Z,2.25
2023-03-27T17:41:28.772Z,4.03
2023-03-27T17:43:57.233Z,2.13
2023-03-27T17:46:27.019Z,2.78
2023-03-27T17:48:57.078Z,2.28
2023-03-27T17:51:25.459Z,2.15
2023-03-27T17:53:53.902Z,1.73
2023-03-27T17:56:29.491Z,1.73
2023-03-27T17:59:00.587Z,1.95
2023-03-27T18:01:30.407Z,3.33
2023-03-27T18:04:00.527Z,1.85
2023-03-27T18:06:29.101Z,2.92
2023-03-27T18:08:59.905Z,4.72
2023-03-27T18:11:29.202Z,2.03
2023-03-27T18:13:57.550Z,2.47
2023-03-27T18:16:25.997Z,1.95
2023-03-27T18:18:58.598Z,0.98
2023-03-27T18:21:29.733Z,1.90
2023-03-27T18:23:59.514Z,2.47
2023-03-27T18:26:27.944Z,3.67
2023-03-27T18:28:56.303Z,2.53
2023-03-27T18:31:24.737Z,1.90
2023-03-27T18:33:53.126Z,1.70
2023-03-27T18:36:23.081Z,1.15
2023-03-27T18:38:51.975Z,0.52
2023-03-27T18:41:26.482Z,1.45
2023-03-27T18:43:54.794Z,0.88
2023-03-27T18:46:23.165Z,2.47
2023-03-27T18:48:51.737Z,2.47
2023-03-27T18:51:23.941Z,1.40
2023-03-27T18:53:54.710Z,1.63
2023-03-27T18:56:23.111Z,2.40
2023-03-27T18:58:51.474Z,2.28
2023-03-27T19:01:19.845Z,2.33
2023-03-27T19:03:51.590Z,2.10
2023-03-27T19:06:20.357Z,1.42
2023-03-27T19:08:51.204Z,1.85
2023-03-27T19:11:19.908Z,1.23
2023-03-27T19:13:48.267Z,2.30
2023-03-27T19:16:16.657Z,0.50
2023-03-27T19:18:46.996Z,1.85
2023-03-27T19:21:15.387Z,1.30
2023-03-27T19:23:43.716Z,1.45
2023-03-27T19:26:14.653Z,0.98
2023-03-27T19:28:43.892Z,1.33
2023-03-27T19:31:12.734Z,1.13
2023-03-27T19:33:41.193Z,1.15
2023-03-27T19:36:10.159Z,1.40
2023-03-27T19:38:38.655Z,1.08
2023-03-27T19:41:09.358Z,0.88
2023-03-27T19:43:44.469Z,1.30
2023-03-27T19:46:16.208Z,0.65
2023-03-27T19:48:45.651Z,0.73
2023-03-27T19:51:14.036Z,4.20
2023-03-27T19:53:43.251Z,1.52
2023-03-27T19:56:11.702Z,1.60
2023-03-27T19:58:41.416Z,0.90
2023-03-27T20:01:10.115Z,1.30
2023-03-27T20:03:39.842Z,2.22
2023-03-27T20:06:11.966Z,0.60
2023-03-27T20:08:42.999Z,2.70
2023-03-27T20:11:11.486Z,1.27
2023-03-27T20:13:53.178Z,2.95
2023-03-27T20:16:24.563Z,1.55
2023-03-27T20:19:02.957Z,0.68
2023-03-27T20:21:32.393Z,2.00
2023-03-27T20:24:00.872Z,2.03
2023-03-27T20:26:29.886Z,1.52
2023-03-27T20:28:59.644Z,1.23
2023-03-27T20:31:28.197Z,1.35
2023-03-27T20:33:56.605Z,0.75
2023-03-27T20:36:25.049Z,1.83
2023-03-27T20:38:53.525Z,0.57
2023-03-27T20:41:21.970Z,1.17
2023-03-27T20:43:53.132Z,1.75
2023-03-27T20:46:22.803Z,0.90
2023-03-27T20:48:53.639Z,1.05
2023-03-27T20:51:31.919Z,1.75
2023-03-27T20:54:00.279Z,3.25
2023-03-27T20:56:28.739Z,1.42
2023-03-27T20:58:57.105Z,1.75
2023-03-27T21:01:27.481Z,1.02
2023-03-27T21:03:58.577Z,4.15
2023-03-27T21:06:27.066Z,6.70
2023-03-27T21:08:55.414Z,0.60
2023-03-27T21:11:23.709Z,1.63
2023-03-27T21:13:52.061Z,1.42
2023-03-27T21:16:20.436Z,5.90
2023-03-27T21:18:50.228Z,1.75
2023-03-27T21:21:18.603Z,4.45
2023-03-27T21:23:48.123Z,3.83
2023-03-27T21:26:16.542Z,0.75
2023-03-27T21:28:44.888Z,3.25
2023-03-27T21:31:13.266Z,1.83
2023-03-27T21:33:41.613Z,3.03
2023-03-27T21:36:12.764Z,3.08
2023-03-27T21:38:41.269Z,2.67
2023-03-27T21:41:10.400Z,2.72
2023-03-27T21:43:38.808Z,3.22
2023-03-27T21:46:07.622Z,2.00
2023-03-27T21:48:36.045Z,1.67
2023-03-27T21:51:07.228Z,1.77
2023-03-27T21:53:37.068Z,3.10
2023-03-27T21:56:06.002Z,1.10
2023-03-27T21:58:34.367Z,1.48
2023-03-27T22:01:02.715Z,1.75
2023-03-27T22:03:31.514Z,2.90
2023-03-27T22:06:11.888Z,3.72
2023-03-27T22:08:43.107Z,3.65
2023-03-27T22:11:11.686Z,2.88
2023-03-27T22:13:40.164Z,2.65
2023-03-27T22:16:09.816Z,2.90
2023-03-27T22:18:38.181Z,4.22
2023-03-27T22:21:14.414Z,2.35
2023-03-27T22:23:44.125Z,1.63
2023-03-27T22:26:12.569Z,3.47
2023-03-27T22:28:41.029Z,1.63
2023-03-27T22:31:09.465Z,2.03
2023-03-27T22:33:38.085Z,2.17
2023-03-27T22:36:07.436Z,3.22
2023-03-27T22:38:36.038Z,3.78
2023-03-27T22:41:06.420Z,2.60
2023-03-27T22:43:35.057Z,4.07
2023-03-27T22:46:05.959Z,2.97
2023-03-27T22:48:36.332Z,1.65
2023-03-27T22:51:04.947Z,2.60
2023-03-27T22:53:33.461Z,2.53
2023-03-27T22:56:03.401Z,2.50
2023-03-27T22:58:33.443Z,1.80
2023-03-27T23:01:02.284Z,1.33
2023-03-27T23:03:30.670Z,2.83
2023-03-27T23:05:59.294Z,1.55
2023-03-27T23:08:28.530Z,2.00
2023-03-27T23:10:57.274Z,2.08
2023-03-27T23:13:26.020Z,1.83
2023-03-27T23:15:55.819Z,1.65
2023-03-27T23:18:25.276Z,3.45
2023-03-27T23:20:56.644Z,1.77
2023-03-27T23:23:25.070Z,1.10
2023-03-27T23:25:53.439Z,1.90
2023-03-27T23:28:21.841Z,2.80
2023-03-27T23:30:55.489Z,4.38
2023-03-27T23:33:25.240Z,2.15
2023-03-27T23:35:54.021Z,2.15
2023-03-27T23:38:22.358Z,1.73
2023-03-27T23:40:57.567Z,1.75
2023-03-27T23:43:26.088Z,1.27
2023-03-27T23:45:56.555Z,2.67
2023-03-27T23:48:25.001Z,3.88
2023-03-27T23:50:53.392Z,1.80
2023-03-27T23:53:21.929Z,1.23
2023-03-27T23:55:50.352Z,2.17
2023-03-27T23:58:18.710Z,3.55
